sensor_id;sensor_type;location;lat;lon;timestamp;temperature;humidity
28087;DHT22;15392;48.912;8.380;2024-02-26T00:02:29;15.80;41.30
28087;DHT22;15392;48.912;8.380;2024-02-26T00:05:15;15.80;41.10
28087;DHT22;15392;48.912;8.380;2024-02-26T00:08:01;15.80;41.20
28087;DHT22;15392;48.912;8.380;2024-02-26T00:10:47;15.80;41.30
28087;DHT22;15392;48.912;8.380;2024-02-26T00:13:33;15.80;41.50
28087;DHT22;15392;48.912;8.380;2024-02-26T00:16:19;15.80;41.30
28087;DHT22;15392;48.912;8.380;2024-02-26T00:19:05;15.80;41.30
28087;DHT22;15392;48.912;8.380;2024-02-26T00:21:51;15.80;41.50
28087;DHT22;15392;48.912;8.380;2024-02-26T00:24:37;15.80;41.10
28087;DHT22;15392;48.912;8.380;2024-02-26T00:27:23;15.80;40.00
28087;DHT22;15392;48.912;8.380;2024-02-26T00:30:09;15.80;40.10
28087;DHT22;15392;48.912;8.380;2024-02-26T00:32:56;15.90;40.20
28087;DHT22;15392;48.912;8.380;2024-02-26T00:35:42;15.80;39.40
28087;DHT22;15392;48.912;8.380;2024-02-26T00:38:28;15.90;40.70
28087;DHT22;15392;48.912;8.380;2024-02-26T00:41:14;15.90;40.70
28087;DHT22;15392;48.912;8.380;2024-02-26T00:44:00;15.90;40.80
28087;DHT22;15392;48.912;8.380;2024-02-26T00:46:46;15.90;41.20
28087;DHT22;15392;48.912;8.380;2024-02-26T00:49:32;15.90;41.40
28087;DHT22;15392;48.912;8.380;2024-02-26T00:52:18;15.90;41.20
28087;DHT22;15392;48.912;8.380;2024-02-26T00:55:04;15.90;41.40
28087;DHT22;15392;48.912;8.380;2024-02-26T00:57:52;15.90;41.40
28087;DHT22;15392;48.912;8.380;2024-02-26T01:00:38;15.90;41.70
28087;DHT22;15392;48.912;8.380;2024-02-26T01:03:24;15.90;42.00
28087;DHT22;15392;48.912;8.380;2024-02-26T01:06:10;15.90;42.30
28087;DHT22;15392;48.912;8.380;2024-02-26T01:08:56;15.90;42.50
28087;DHT22;15392;48.912;8.380;2024-02-26T01:11:42;15.90;42.50
28087;DHT22;15392;48.912;8.380;2024-02-26T01:14:28;15.90;42.80
28087;DHT22;15392;48.912;8.380;2024-02-26T01:17:14;15.80;42.90
28087;DHT22;15392;48.912;8.380;2024-02-26T01:20:01;15.80;43.10
28087;DHT22;15392;48.912;8.380;2024-02-26T01:22:47;15.80;42.30
28087;DHT22;15392;48.912;8.380;2024-02-26T01:25:33;15.70;42.10
28087;DHT22;15392;48.912;8.380;2024-02-26T01:28:19;15.70;42.90
28087;DHT22;15392;48.912;8.380;2024-02-26T01:31:05;15.70;43.30
28087;DHT22;15392;48.912;8.380;2024-02-26T01:33:53;15.70;43.30
28087;DHT22;15392;48.912;8.380;2024-02-26T01:36:39;15.60;43.10
28087;DHT22;15392;48.912;8.380;2024-02-26T01:39:25;15.60;43.10
28087;DHT22;15392;48.912;8.380;2024-02-26T01:42:11;15.60;43.50
28087;DHT22;15392;48.912;8.380;2024-02-26T01:44:58;15.60;43.70
28087;DHT22;15392;48.912;8.380;2024-02-26T01:47:45;15.50;43.70
28087;DHT22;15392;48.912;8.380;2024-02-26T01:50:31;15.50;44.00
28087;DHT22;15392;48.912;8.380;2024-02-26T01:53:17;15.50;44.20
28087;DHT22;15392;48.912;8.380;2024-02-26T01:56:04;15.50;44.40
28087;DHT22;15392;48.912;8.380;2024-02-26T01:58:50;15.50;44.60
28087;DHT22;15392;48.912;8.380;2024-02-26T02:01:36;15.40;44.80
28087;DHT22;15392;48.912;8.380;2024-02-26T02:04:25;15.40;45.00
28087;DHT22;15392;48.912;8.380;2024-02-26T02:07:11;15.30;45.30
28087;DHT22;15392;48.912;8.380;2024-02-26T02:09:58;15.30;45.50
28087;DHT22;15392;48.912;8.380;2024-02-26T02:12:44;15.30;45.80
28087;DHT22;15392;48.912;8.380;2024-02-26T02:15:30;15.20;46.20
28087;DHT22;15392;48.912;8.380;2024-02-26T02:18:16;15.10;46.40
28087;DHT22;15392;48.912;8.380;2024-02-26T02:21:03;15.00;46.50
28087;DHT22;15392;48.912;8.380;2024-02-26T02:23:49;14.90;46.70
28087;DHT22;15392;48.912;8.380;2024-02-26T02:26:35;14.90;47.00
28087;DHT22;15392;48.912;8.380;2024-02-26T02:29:22;14.80;47.10
28087;DHT22;15392;48.912;8.380;2024-02-26T02:32:08;14.70;47.30
28087;DHT22;15392;48.912;8.380;2024-02-26T02:34:55;14.70;47.60
28087;DHT22;15392;48.912;8.380;2024-02-26T02:37:41;14.60;48.00
28087;DHT22;15392;48.912;8.380;2024-02-26T02:40:28;14.50;47.90
28087;DHT22;15392;48.912;8.380;2024-02-26T02:43:14;14.40;47.80
28087;DHT22;15392;48.912;8.380;2024-02-26T02:46:00;14.40;47.90
28087;DHT22;15392;48.912;8.380;2024-02-26T02:48:46;14.30;47.80
28087;DHT22;15392;48.912;8.380;2024-02-26T02:51:32;14.30;48.00
28087;DHT22;15392;48.912;8.380;2024-02-26T02:54:18;14.30;47.90
28087;DHT22;15392;48.912;8.380;2024-02-26T02:57:04;14.20;48.10
28087;DHT22;15392;48.912;8.380;2024-02-26T02:59:50;14.20;48.30
28087;DHT22;15392;48.912;8.380;2024-02-26T03:02:36;14.10;48.40
28087;DHT22;15392;48.912;8.380;2024-02-26T03:05:22;14.10;48.60
28087;DHT22;15392;48.912;8.380;2024-02-26T03:08:09;14.10;48.60
28087;DHT22;15392;48.912;8.380;2024-02-26T03:10:55;14.00;48.60
28087;DHT22;15392;48.912;8.380;2024-02-26T03:13:41;14.00;48.70
28087;DHT22;15392;48.912;8.380;2024-02-26T03:16:27;14.00;48.90
28087;DHT22;15392;48.912;8.380;2024-02-26T03:19:17;13.90;48.90
28087;DHT22;15392;48.912;8.380;2024-02-26T03:22:03;13.90;49.00
28087;DHT22;15392;48.912;8.380;2024-02-26T03:24:49;13.90;48.90
28087;DHT22;15392;48.912;8.380;2024-02-26T03:27:35;13.80;49.00
28087;DHT22;15392;48.912;8.380;2024-02-26T03:30:21;13.90;49.00
28087;DHT22;15392;48.912;8.380;2024-02-26T03:33:07;13.90;49.10
28087;DHT22;15392;48.912;8.380;2024-02-26T03:35:53;13.80;49.10
28087;DHT22;15392;48.912;8.380;2024-02-26T03:38:40;13.80;49.20
28087;DHT22;15392;48.912;8.380;2024-02-26T03:41:26;13.80;49.10
28087;DHT22;15392;48.912;8.380;2024-02-26T03:44:12;13.80;49.20
28087;DHT22;15392;48.912;8.380;2024-02-26T03:46:58;13.80;49.20
28087;DHT22;15392;48.912;8.380;2024-02-26T03:49:44;13.80;49.30
28087;DHT22;15392;48.912;8.380;2024-02-26T03:52:30;13.80;49.40
28087;DHT22;15392;48.912;8.380;2024-02-26T03:55:16;13.80;49.30
28087;DHT22;15392;48.912;8.380;2024-02-26T03:58:06;13.70;49.20
28087;DHT22;15392;48.912;8.380;2024-02-26T04:00:52;13.70;49.20
28087;DHT22;15392;48.912;8.380;2024-02-26T04:03:38;13.80;49.20
28087;DHT22;15392;48.912;8.380;2024-02-26T04:06:24;13.70;49.20
28087;DHT22;15392;48.912;8.380;2024-02-26T04:09:11;13.70;49.20
28087;DHT22;15392;48.912;8.380;2024-02-26T04:11:57;13.70;49.10
28087;DHT22;15392;48.912;8.380;2024-02-26T04:14:43;13.70;49.10
28087;DHT22;15392;48.912;8.380;2024-02-26T04:17:30;13.70;49.70
28087;DHT22;15392;48.912;8.380;2024-02-26T04:20:16;13.70;49.20
28087;DHT22;15392;48.912;8.380;2024-02-26T04:23:03;13.60;49.30
28087;DHT22;15392;48.912;8.380;2024-02-26T04:25:52;13.60;49.30
28087;DHT22;15392;48.912;8.380;2024-02-26T04:28:41;13.60;49.40
28087;DHT22;15392;48.912;8.380;2024-02-26T04:31:27;13.60;49.40
28087;DHT22;15392;48.912;8.380;2024-02-26T04:34:13;13.60;49.40
28087;DHT22;15392;48.912;8.380;2024-02-26T04:36:59;13.60;49.40
28087;DHT22;15392;48.912;8.380;2024-02-26T04:39:45;13.60;49.40
28087;DHT22;15392;48.912;8.380;2024-02-26T04:42:31;13.50;49.50
28087;DHT22;15392;48.912;8.380;2024-02-26T04:45:17;13.50;49.50
28087;DHT22;15392;48.912;8.380;2024-02-26T04:48:07;13.50;49.60
28087;DHT22;15392;48.912;8.380;2024-02-26T04:50:53;13.50;49.80
28087;DHT22;15392;48.912;8.380;2024-02-26T04:53:39;13.50;49.70
28087;DHT22;15392;48.912;8.380;2024-02-26T04:56:25;13.50;49.80
28087;DHT22;15392;48.912;8.380;2024-02-26T04:59:11;13.50;49.80
28087;DHT22;15392;48.912;8.380;2024-02-26T05:01:57;13.40;49.70
28087;DHT22;15392;48.912;8.380;2024-02-26T05:04:43;13.40;49.70
28087;DHT22;15392;48.912;8.380;2024-02-26T05:07:29;13.40;49.80
28087;DHT22;15392;48.912;8.380;2024-02-26T05:10:15;13.40;49.90
28087;DHT22;15392;48.912;8.380;2024-02-26T05:13:02;13.40;49.90
28087;DHT22;15392;48.912;8.380;2024-02-26T05:15:48;13.40;49.90
28087;DHT22;15392;48.912;8.380;2024-02-26T05:18:35;13.40;50.00
28087;DHT22;15392;48.912;8.380;2024-02-26T05:21:21;13.50;50.30
28087;DHT22;15392;48.912;8.380;2024-02-26T05:24:07;13.40;50.00
28087;DHT22;15392;48.912;8.380;2024-02-26T05:26:54;13.40;50.00
28087;DHT22;15392;48.912;8.380;2024-02-26T05:29:41;13.40;50.00
28087;DHT22;15392;48.912;8.380;2024-02-26T05:32:27;13.40;49.90
28087;DHT22;15392;48.912;8.380;2024-02-26T05:35:13;13.40;49.90
28087;DHT22;15392;48.912;8.380;2024-02-26T05:37:59;13.40;49.90
28087;DHT22;15392;48.912;8.380;2024-02-26T05:40:45;13.40;49.80
28087;DHT22;15392;48.912;8.380;2024-02-26T05:43:31;13.40;50.00
28087;DHT22;15392;48.912;8.380;2024-02-26T05:46:18;13.40;49.80
28087;DHT22;15392;48.912;8.380;2024-02-26T05:49:04;13.40;49.80
28087;DHT22;15392;48.912;8.380;2024-02-26T05:51:50;13.40;49.80
28087;DHT22;15392;48.912;8.380;2024-02-26T05:54:36;13.40;49.70
28087;DHT22;15392;48.912;8.380;2024-02-26T05:57:22;13.40;49.60
28087;DHT22;15392;48.912;8.380;2024-02-26T06:00:09;13.40;49.70
28087;DHT22;15392;48.912;8.380;2024-02-26T06:02:58;13.40;49.80
28087;DHT22;15392;48.912;8.380;2024-02-26T06:05:44;13.40;49.90
28087;DHT22;15392;48.912;8.380;2024-02-26T06:08:30;13.40;49.90
28087;DHT22;15392;48.912;8.380;2024-02-26T06:11:17;13.40;49.90
28087;DHT22;15392;48.912;8.380;2024-02-26T06:14:03;13.50;49.90
28087;DHT22;15392;48.912;8.380;2024-02-26T06:16:49;13.50;50.00
28087;DHT22;15392;48.912;8.380;2024-02-26T06:19:35;13.50;50.00
28087;DHT22;15392;48.912;8.380;2024-02-26T06:22:21;13.50;50.10
28087;DHT22;15392;48.912;8.380;2024-02-26T06:25:08;13.50;50.10
28087;DHT22;15392;48.912;8.380;2024-02-26T06:27:54;13.50;50.80
28087;DHT22;15392;48.912;8.380;2024-02-26T06:30:41;13.50;50.20
28087;DHT22;15392;48.912;8.380;2024-02-26T06:33:27;13.40;50.40
28087;DHT22;15392;48.912;8.380;2024-02-26T06:36:13;13.40;50.30
28087;DHT22;15392;48.912;8.380;2024-02-26T06:38:59;13.40;50.40
28087;DHT22;15392;48.912;8.380;2024-02-26T06:41:45;13.40;50.60
28087;DHT22;15392;48.912;8.380;2024-02-26T06:44:33;13.40;50.80
28087;DHT22;15392;48.912;8.380;2024-02-26T06:47:19;13.30;50.60
28087;DHT22;15392;48.912;8.380;2024-02-26T06:50:06;13.30;50.60
28087;DHT22;15392;48.912;8.380;2024-02-26T06:52:52;13.30;50.70
28087;DHT22;15392;48.912;8.380;2024-02-26T06:55:38;13.30;50.70
28087;DHT22;15392;48.912;8.380;2024-02-26T06:58:26;13.30;50.80
28087;DHT22;15392;48.912;8.380;2024-02-26T07:01:12;13.30;50.80
28087;DHT22;15392;48.912;8.380;2024-02-26T07:03:58;13.30;51.00
28087;DHT22;15392;48.912;8.380;2024-02-26T07:06:45;13.30;51.00
28087;DHT22;15392;48.912;8.380;2024-02-26T07:09:32;13.30;51.20
28087;DHT22;15392;48.912;8.380;2024-02-26T07:12:21;13.30;51.40
28087;DHT22;15392;48.912;8.380;2024-02-26T07:15:07;13.20;51.10
28087;DHT22;15392;48.912;8.380;2024-02-26T07:17:54;13.20;51.40
28087;DHT22;15392;48.912;8.380;2024-02-26T07:20:40;13.20;51.30
28087;DHT22;15392;48.912;8.380;2024-02-26T07:23:27;13.20;51.50
28087;DHT22;15392;48.912;8.380;2024-02-26T07:26:15;13.20;51.90
28087;DHT22;15392;48.912;8.380;2024-02-26T07:29:04;13.10;51.70
28087;DHT22;15392;48.912;8.380;2024-02-26T07:31:51;13.10;51.80
28087;DHT22;15392;48.912;8.380;2024-02-26T07:34:37;13.10;51.80
28087;DHT22;15392;48.912;8.380;2024-02-26T07:37:27;13.10;51.80
28087;DHT22;15392;48.912;8.380;2024-02-26T07:40:13;13.20;51.90
28087;DHT22;15392;48.912;8.380;2024-02-26T07:42:59;13.10;52.00
28087;DHT22;15392;48.912;8.380;2024-02-26T07:45:45;13.10;51.90
28087;DHT22;15392;48.912;8.380;2024-02-26T07:48:31;13.20;51.70
28087;DHT22;15392;48.912;8.380;2024-02-26T07:51:17;13.20;51.60
28087;DHT22;15392;48.912;8.380;2024-02-26T07:54:03;13.20;51.70
28087;DHT22;15392;48.912;8.380;2024-02-26T07:56:49;13.20;52.40
28087;DHT22;15392;48.912;8.380;2024-02-26T07:59:35;13.30;51.80
28087;DHT22;15392;48.912;8.380;2024-02-26T08:02:21;13.30;51.90
28087;DHT22;15392;48.912;8.380;2024-02-26T08:05:08;13.30;51.90
28087;DHT22;15392;48.912;8.380;2024-02-26T08:07:54;13.30;51.90
28087;DHT22;15392;48.912;8.380;2024-02-26T08:10:40;13.40;51.90
28087;DHT22;15392;48.912;8.380;2024-02-26T08:13:26;13.40;52.00
28087;DHT22;15392;48.912;8.380;2024-02-26T08:16:12;13.50;52.00
28087;DHT22;15392;48.912;8.380;2024-02-26T08:18:58;13.50;52.00
28087;DHT22;15392;48.912;8.380;2024-02-26T08:21:44;13.60;52.00
28087;DHT22;15392;48.912;8.380;2024-02-26T08:24:30;13.60;52.30
28087;DHT22;15392;48.912;8.380;2024-02-26T08:27:17;13.70;52.30
28087;DHT22;15392;48.912;8.380;2024-02-26T08:30:03;13.80;52.30
28087;DHT22;15392;48.912;8.380;2024-02-26T08:32:50;13.80;51.90
28087;DHT22;15392;48.912;8.380;2024-02-26T08:35:36;13.90;51.80
28087;DHT22;15392;48.912;8.380;2024-02-26T08:38:22;13.90;51.80
28087;DHT22;15392;48.912;8.380;2024-02-26T08:41:08;14.00;51.80
28087;DHT22;15392;48.912;8.380;2024-02-26T08:43:55;14.10;51.70
28087;DHT22;15392;48.912;8.380;2024-02-26T08:46:41;14.20;51.40
28087;DHT22;15392;48.912;8.380;2024-02-26T08:49:27;14.30;51.50
28087;DHT22;15392;48.912;8.380;2024-02-26T08:52:13;14.40;51.70
28087;DHT22;15392;48.912;8.380;2024-02-26T08:55:00;14.60;51.60
28087;DHT22;15392;48.912;8.380;2024-02-26T08:57:46;14.80;51.60
28087;DHT22;15392;48.912;8.380;2024-02-26T09:00:33;14.90;51.40
28087;DHT22;15392;48.912;8.380;2024-02-26T09:03:19;15.00;51.00
28087;DHT22;15392;48.912;8.380;2024-02-26T09:06:05;15.10;50.90
28087;DHT22;15392;48.912;8.380;2024-02-26T09:08:52;15.20;50.90
28087;DHT22;15392;48.912;8.380;2024-02-26T09:11:38;15.20;50.80
28087;DHT22;15392;48.912;8.380;2024-02-26T09:14:24;15.30;50.70
28087;DHT22;15392;48.912;8.380;2024-02-26T09:17:10;15.30;50.60
28087;DHT22;15392;48.912;8.380;2024-02-26T09:19:56;15.40;50.60
28087;DHT22;15392;48.912;8.380;2024-02-26T09:22:43;15.40;50.60
28087;DHT22;15392;48.912;8.380;2024-02-26T09:25:29;15.40;50.50
28087;DHT22;15392;48.912;8.380;2024-02-26T09:28:15;15.50;50.50
28087;DHT22;15392;48.912;8.380;2024-02-26T09:31:04;15.50;50.40
28087;DHT22;15392;48.912;8.380;2024-02-26T09:33:51;15.50;50.40
28087;DHT22;15392;48.912;8.380;2024-02-26T09:36:37;15.50;50.30
28087;DHT22;15392;48.912;8.380;2024-02-26T09:39:24;15.60;50.40
28087;DHT22;15392;48.912;8.380;2024-02-26T09:42:11;15.60;50.40
28087;DHT22;15392;48.912;8.380;2024-02-26T09:45:00;15.70;50.50
28087;DHT22;15392;48.912;8.380;2024-02-26T09:47:49;15.70;50.50
28087;DHT22;15392;48.912;8.380;2024-02-26T09:50:35;15.70;50.40
28087;DHT22;15392;48.912;8.380;2024-02-26T09:53:22;15.70;50.40
28087;DHT22;15392;48.912;8.380;2024-02-26T09:56:08;15.80;50.50
28087;DHT22;15392;48.912;8.380;2024-02-26T09:58:56;15.80;50.40
28087;DHT22;15392;48.912;8.380;2024-02-26T10:01:42;15.80;50.50
28087;DHT22;15392;48.912;8.380;2024-02-26T10:04:31;15.90;51.10
28087;DHT22;15392;48.912;8.380;2024-02-26T10:07:17;15.90;50.50
28087;DHT22;15392;48.912;8.380;2024-02-26T10:10:04;16.00;50.50
28087;DHT22;15392;48.912;8.380;2024-02-26T10:12:50;16.00;51.00
28087;DHT22;15392;48.912;8.380;2024-02-26T10:15:36;16.10;50.40
28087;DHT22;15392;48.912;8.380;2024-02-26T10:18:23;16.10;50.40
28087;DHT22;15392;48.912;8.380;2024-02-26T10:21:10;16.20;50.50
28087;DHT22;15392;48.912;8.380;2024-02-26T10:23:56;16.30;50.60
28087;DHT22;15392;48.912;8.380;2024-02-26T10:26:46;16.30;50.50
28087;DHT22;15392;48.912;8.380;2024-02-26T10:29:32;16.40;50.50
28087;DHT22;15392;48.912;8.380;2024-02-26T10:32:18;16.50;50.40
28087;DHT22;15392;48.912;8.380;2024-02-26T10:35:08;16.70;50.50
28087;DHT22;15392;48.912;8.380;2024-02-26T10:37:54;16.80;50.50
28087;DHT22;15392;48.912;8.380;2024-02-26T10:40:40;17.00;50.70
28087;DHT22;15392;48.912;8.380;2024-02-26T10:43:26;17.30;51.00
28087;DHT22;15392;48.912;8.380;2024-02-26T10:46:12;17.70;51.10
28087;DHT22;15392;48.912;8.380;2024-02-26T10:48:59;18.10;50.90
28087;DHT22;15392;48.912;8.380;2024-02-26T10:51:53;18.40;50.20
28087;DHT22;15392;48.912;8.380;2024-02-26T10:54:47;18.60;49.40
28087;DHT22;15392;48.912;8.380;2024-02-26T10:57:40;18.80;48.90
28087;DHT22;15392;48.912;8.380;2024-02-26T11:00:27;18.90;48.50
28087;DHT22;15392;48.912;8.380;2024-02-26T11:03:15;19.00;48.20
28087;DHT22;15392;48.912;8.380;2024-02-26T11:06:05;19.00;48.00
28087;DHT22;15392;48.912;8.380;2024-02-26T11:08:53;19.00;48.00
28087;DHT22;15392;48.912;8.380;2024-02-26T11:11:40;19.10;48.00
28087;DHT22;15392;48.912;8.380;2024-02-26T11:14:29;19.20;47.90
28087;DHT22;15392;48.912;8.380;2024-02-26T11:17:17;19.30;47.70
28087;DHT22;15392;48.912;8.380;2024-02-26T11:20:05;19.30;47.60
28087;DHT22;15392;48.912;8.380;2024-02-26T11:22:52;19.40;48.00
28087;DHT22;15392;48.912;8.380;2024-02-26T11:25:38;19.40;47.30
28087;DHT22;15392;48.912;8.380;2024-02-26T11:28:27;19.30;47.20
28087;DHT22;15392;48.912;8.380;2024-02-26T11:31:14;19.40;47.10
28087;DHT22;15392;48.912;8.380;2024-02-26T11:34:00;19.30;47.20
28087;DHT22;15392;48.912;8.380;2024-02-26T11:36:47;19.30;47.30
28087;DHT22;15392;48.912;8.380;2024-02-26T11:39:33;19.40;47.50
28087;DHT22;15392;48.912;8.380;2024-02-26T11:42:24;19.40;47.50
28087;DHT22;15392;48.912;8.380;2024-02-26T11:48:24;19.60;47.10
28087;DHT22;15392;48.912;8.380;2024-02-26T11:51:11;19.60;47.30
28087;DHT22;15392;48.912;8.380;2024-02-26T11:53:58;19.60;47.30
28087;DHT22;15392;48.912;8.380;2024-02-26T11:56:45;19.60;47.20
28087;DHT22;15392;48.912;8.380;2024-02-26T11:59:38;19.60;47.20
28087;DHT22;15392;48.912;8.380;2024-02-26T12:05:33;19.60;46.90
28087;DHT22;15392;48.912;8.380;2024-02-26T12:08:21;19.60;47.10
28087;DHT22;15392;48.912;8.380;2024-02-26T12:11:14;19.60;47.10
28087;DHT22;15392;48.912;8.380;2024-02-26T12:14:02;19.60;46.90
28087;DHT22;15392;48.912;8.380;2024-02-26T12:16:48;19.60;47.20
28087;DHT22;15392;48.912;8.380;2024-02-26T12:19:37;19.60;47.30
28087;DHT22;15392;48.912;8.380;2024-02-26T12:22:25;19.70;47.40
28087;DHT22;15392;48.912;8.380;2024-02-26T12:25:11;19.70;47.50
28087;DHT22;15392;48.912;8.380;2024-02-26T12:27:59;19.80;47.40
28087;DHT22;15392;48.912;8.380;2024-02-26T12:30:46;19.90;47.30
28087;DHT22;15392;48.912;8.380;2024-02-26T12:33:32;19.90;47.20
28087;DHT22;15392;48.912;8.380;2024-02-26T12:36:18;19.90;47.10
28087;DHT22;15392;48.912;8.380;2024-02-26T12:39:04;20.00;47.10
28087;DHT22;15392;48.912;8.380;2024-02-26T12:41:58;20.00;47.00
28087;DHT22;15392;48.912;8.380;2024-02-26T12:44:49;20.10;46.80
28087;DHT22;15392;48.912;8.380;2024-02-26T12:47:40;20.10;46.70
28087;DHT22;15392;48.912;8.380;2024-02-26T12:50:27;20.10;46.50
28087;DHT22;15392;48.912;8.380;2024-02-26T12:53:13;20.10;46.50
28087;DHT22;15392;48.912;8.380;2024-02-26T12:55:59;20.10;46.50
28087;DHT22;15392;48.912;8.380;2024-02-26T12:58:45;20.10;46.40
28087;DHT22;15392;48.912;8.380;2024-02-26T13:01:32;20.10;46.40
28087;DHT22;15392;48.912;8.380;2024-02-26T13:04:18;20.00;46.30
28087;DHT22;15392;48.912;8.380;2024-02-26T13:07:05;20.00;46.40
28087;DHT22;15392;48.912;8.380;2024-02-26T13:09:51;20.00;46.60
28087;DHT22;15392;48.912;8.380;2024-02-26T13:12:43;20.00;46.60
28087;DHT22;15392;48.912;8.380;2024-02-26T13:15:32;20.00;46.40
28087;DHT22;15392;48.912;8.380;2024-02-26T13:18:18;20.00;46.50
28087;DHT22;15392;48.912;8.380;2024-02-26T13:21:15;20.00;46.40
28087;DHT22;15392;48.912;8.380;2024-02-26T13:24:02;20.00;46.00
28087;DHT22;15392;48.912;8.380;2024-02-26T13:26:55;20.10;46.30
28087;DHT22;15392;48.912;8.380;2024-02-26T13:29:41;20.00;46.10
28087;DHT22;15392;48.912;8.380;2024-02-26T13:32:27;20.00;46.40
28087;DHT22;15392;48.912;8.380;2024-02-26T13:35:16;20.00;46.40
28087;DHT22;15392;48.912;8.380;2024-02-26T13:38:04;20.00;46.40
28087;DHT22;15392;48.912;8.380;2024-02-26T13:40:50;20.00;46.40
28087;DHT22;15392;48.912;8.380;2024-02-26T13:43:37;20.00;46.50
28087;DHT22;15392;48.912;8.380;2024-02-26T13:46:24;20.00;46.50
28087;DHT22;15392;48.912;8.380;2024-02-26T13:49:10;20.00;46.50
28087;DHT22;15392;48.912;8.380;2024-02-26T13:52:16;20.00;46.50
28087;DHT22;15392;48.912;8.380;2024-02-26T13:55:02;19.90;46.50
28087;DHT22;15392;48.912;8.380;2024-02-26T13:57:48;19.90;47.00
28087;DHT22;15392;48.912;8.380;2024-02-26T14:00:37;19.90;46.60
28087;DHT22;15392;48.912;8.380;2024-02-26T14:03:23;19.90;46.60
28087;DHT22;15392;48.912;8.380;2024-02-26T14:06:09;19.90;46.60
28087;DHT22;15392;48.912;8.380;2024-02-26T14:08:55;19.90;46.70
28087;DHT22;15392;48.912;8.380;2024-02-26T14:11:42;19.90;46.80
28087;DHT22;15392;48.912;8.380;2024-02-26T14:14:28;19.90;46.80
28087;DHT22;15392;48.912;8.380;2024-02-26T14:17:14;19.80;46.40
28087;DHT22;15392;48.912;8.380;2024-02-26T14:20:00;19.80;46.50
28087;DHT22;15392;48.912;8.380;2024-02-26T14:22:48;19.80;46.50
28087;DHT22;15392;48.912;8.380;2024-02-26T14:25:40;19.80;46.50
28087;DHT22;15392;48.912;8.380;2024-02-26T14:28:26;19.80;46.60
28087;DHT22;15392;48.912;8.380;2024-02-26T14:31:17;19.80;46.60
28087;DHT22;15392;48.912;8.380;2024-02-26T14:34:04;19.80;46.60
28087;DHT22;15392;48.912;8.380;2024-02-26T14:36:50;19.80;46.80
28087;DHT22;15392;48.912;8.380;2024-02-26T14:39:37;19.80;46.60
28087;DHT22;15392;48.912;8.380;2024-02-26T14:42:24;19.70;46.60
28087;DHT22;15392;48.912;8.380;2024-02-26T14:45:10;19.70;46.70
28087;DHT22;15392;48.912;8.380;2024-02-26T14:47:57;19.70;46.70
28087;DHT22;15392;48.912;8.380;2024-02-26T14:50:43;19.70;46.70
28087;DHT22;15392;48.912;8.380;2024-02-26T14:53:29;19.70;46.60
28087;DHT22;15392;48.912;8.380;2024-02-26T14:56:15;19.70;46.70
28087;DHT22;15392;48.912;8.380;2024-02-26T14:59:01;19.70;46.60
28087;DHT22;15392;48.912;8.380;2024-02-26T15:01:47;19.70;46.50
28087;DHT22;15392;48.912;8.380;2024-02-26T15:04:33;19.60;46.50
28087;DHT22;15392;48.912;8.380;2024-02-26T15:07:19;19.60;46.50
28087;DHT22;15392;48.912;8.380;2024-02-26T15:10:07;19.60;46.40
28087;DHT22;15392;48.912;8.380;2024-02-26T15:12:54;19.60;46.20
28087;DHT22;15392;48.912;8.380;2024-02-26T15:15:41;19.60;46.20
28087;DHT22;15392;48.912;8.380;2024-02-26T15:18:27;19.60;46.30
28087;DHT22;15392;48.912;8.380;2024-02-26T15:21:13;19.60;46.30
28087;DHT22;15392;48.912;8.380;2024-02-26T15:24:02;19.60;46.50
28087;DHT22;15392;48.912;8.380;2024-02-26T15:26:48;19.60;46.40
28087;DHT22;15392;48.912;8.380;2024-02-26T15:29:34;19.50;46.40
28087;DHT22;15392;48.912;8.380;2024-02-26T15:32:22;19.50;46.40
28087;DHT22;15392;48.912;8.380;2024-02-26T15:35:09;19.50;46.50
28087;DHT22;15392;48.912;8.380;2024-02-26T15:37:55;19.50;46.50
28087;DHT22;15392;48.912;8.380;2024-02-26T15:40:42;19.50;46.30
28087;DHT22;15392;48.912;8.380;2024-02-26T15:43:30;19.40;46.90
28087;DHT22;15392;48.912;8.380;2024-02-26T15:46:16;19.40;46.40
28087;DHT22;15392;48.912;8.380;2024-02-26T15:49:02;19.40;46.30
28087;DHT22;15392;48.912;8.380;2024-02-26T15:51:49;19.40;46.30
28087;DHT22;15392;48.912;8.380;2024-02-26T15:54:41;19.30;46.30
28087;DHT22;15392;48.912;8.380;2024-02-26T15:57:27;19.30;46.10
28087;DHT22;15392;48.912;8.380;2024-02-26T16:00:14;19.30;46.40
28087;DHT22;15392;48.912;8.380;2024-02-26T16:03:00;19.20;46.30
28087;DHT22;15392;48.912;8.380;2024-02-26T16:05:49;19.20;46.40
28087;DHT22;15392;48.912;8.380;2024-02-26T16:08:35;19.20;46.40
28087;DHT22;15392;48.912;8.380;2024-02-26T16:11:21;19.10;46.50
28087;DHT22;15392;48.912;8.380;2024-02-26T16:17:29;19.10;46.50
28087;DHT22;15392;48.912;8.380;2024-02-26T16:20:19;19.00;46.50
28087;DHT22;15392;48.912;8.380;2024-02-26T16:23:06;19.00;46.50
28087;DHT22;15392;48.912;8.380;2024-02-26T16:25:53;19.00;46.60
28087;DHT22;15392;48.912;8.380;2024-02-26T16:28:40;18.90;46.50
28087;DHT22;15392;48.912;8.380;2024-02-26T16:31:26;18.90;46.60
28087;DHT22;15392;48.912;8.380;2024-02-26T16:34:12;18.90;46.70
28087;DHT22;15392;48.912;8.380;2024-02-26T16:37:07;18.90;46.70
28087;DHT22;15392;48.912;8.380;2024-02-26T16:39:58;18.80;46.70
28087;DHT22;15392;48.912;8.380;2024-02-26T16:42:52;18.80;46.80
28087;DHT22;15392;48.912;8.380;2024-02-26T16:45:38;18.80;46.80
28087;DHT22;15392;48.912;8.380;2024-02-26T16:48:24;18.70;46.80
28087;DHT22;15392;48.912;8.380;2024-02-26T16:51:11;18.70;46.90
28087;DHT22;15392;48.912;8.380;2024-02-26T16:53:57;18.70;46.90
28087;DHT22;15392;48.912;8.380;2024-02-26T16:56:43;18.70;46.90
28087;DHT22;15392;48.912;8.380;2024-02-26T16:59:29;18.60;46.90
28087;DHT22;15392;48.912;8.380;2024-02-26T17:02:15;18.60;47.00
28087;DHT22;15392;48.912;8.380;2024-02-26T17:05:01;18.60;47.00
28087;DHT22;15392;48.912;8.380;2024-02-26T17:07:48;18.60;47.00
28087;DHT22;15392;48.912;8.380;2024-02-26T17:10:38;18.50;47.00
28087;DHT22;15392;48.912;8.380;2024-02-26T17:13:24;18.50;47.00
28087;DHT22;15392;48.912;8.380;2024-02-26T17:16:10;18.40;47.00
28087;DHT22;15392;48.912;8.380;2024-02-26T17:18:56;18.40;47.10
28087;DHT22;15392;48.912;8.380;2024-02-26T17:21:42;18.40;47.10
28087;DHT22;15392;48.912;8.380;2024-02-26T17:24:28;18.40;47.20
28087;DHT22;15392;48.912;8.380;2024-02-26T17:27:17;18.30;47.20
28087;DHT22;15392;48.912;8.380;2024-02-26T17:30:06;18.30;47.10
28087;DHT22;15392;48.912;8.380;2024-02-26T17:32:55;18.30;47.20
28087;DHT22;15392;48.912;8.380;2024-02-26T17:35:42;18.30;47.20
28087;DHT22;15392;48.912;8.380;2024-02-26T17:38:28;18.30;47.20
28087;DHT22;15392;48.912;8.380;2024-02-26T17:41:15;18.20;47.10
28087;DHT22;15392;48.912;8.380;2024-02-26T17:44:01;18.20;47.20